sensor_id;sensor_type;location;lat;lon;timestamp;P1;durP1;ratioP1;P2;durP2;ratioP2
60257;SDS011;46115;44.484;11.314;2022-12-07T00:02:51;76.70;;;35.72;;
60257;SDS011;46115;44.484;11.314;2022-12-07T00:06:54;103.72;;;40.42;;
60257;SDS011;46115;44.484;11.314;2022-12-07T00:15:04;92.78;;;38.58;;
60257;SDS011;46115;44.484;11.314;2022-12-07T00:19:09;83.28;;;37.72;;
60257;SDS011;46115;44.484;11.314;2022-12-07T00:23:12;78.10;;;36.38;;
60257;SDS011;46115;44.484;11.314;2022-12-07T00:31:19;83.72;;;35.72;;
60257;SDS011;46115;44.484;11.314;2022-12-07T00:35:23;79.82;;;34.72;;
60257;SDS011;46115;44.484;11.314;2022-12-07T00:39:25;86.15;;;36.47;;
60257;SDS011;46115;44.484;11.314;2022-12-07T00:43:29;85.32;;;36.40;;
60257;SDS011;46115;44.484;11.314;2022-12-07T00:47:32;85.03;;;36.72;;
60257;SDS011;46115;44.484;11.314;2022-12-07T00:51:35;82.22;;;34.88;;
60257;SDS011;46115;44.484;11.314;2022-12-07T00:55:37;89.85;;;36.75;;
60257;SDS011;46115;44.484;11.314;2022-12-07T00:59:44;96.47;;;36.47;;
60257;SDS011;46115;44.484;11.314;2022-12-07T01:03:46;97.55;;;38.63;;
60257;SDS011;46115;44.484;11.314;2022-12-07T01:07:49;87.93;;;36.05;;
60257;SDS011;46115;44.484;11.314;2022-12-07T01:11:51;100.97;;;38.67;;
60257;SDS011;46115;44.484;11.314;2022-12-07T01:15:58;107.07;;;38.80;;
60257;SDS011;46115;44.484;11.314;2022-12-07T01:20:02;88.78;;;36.17;;
60257;SDS011;46115;44.484;11.314;2022-12-07T01:24:06;85.22;;;35.17;;
60257;SDS011;46115;44.484;11.314;2022-12-07T01:28:11;79.65;;;32.90;;
60257;SDS011;46115;44.484;11.314;2022-12-07T01:36:17;79.68;;;34.95;;
60257;SDS011;46115;44.484;11.314;2022-12-07T01:40:24;82.28;;;34.90;;
60257;SDS011;46115;44.484;11.314;2022-12-07T01:48:32;85.53;;;34.97;;
60257;SDS011;46115;44.484;11.314;2022-12-07T01:52:39;81.10;;;35.35;;
60257;SDS011;46115;44.484;11.314;2022-12-07T01:56:47;71.47;;;32.00;;
60257;SDS011;46115;44.484;11.314;2022-12-07T02:00:55;68.57;;;32.35;;
60257;SDS011;46115;44.484;11.314;2022-12-07T02:05:13;68.40;;;31.85;;
60257;SDS011;46115;44.484;11.314;2022-12-07T02:09:16;81.90;;;33.70;;
60257;SDS011;46115;44.484;11.314;2022-12-07T02:13:19;76.63;;;32.90;;
60257;SDS011;46115;44.484;11.314;2022-12-07T02:17:25;78.47;;;33.17;;
60257;SDS011;46115;44.484;11.314;2022-12-07T02:21:37;73.47;;;32.20;;
60257;SDS011;46115;44.484;11.314;2022-12-07T02:34:05;67.20;;;30.48;;
60257;SDS011;46115;44.484;11.314;2022-12-07T02:38:12;64.97;;;29.30;;
60257;SDS011;46115;44.484;11.314;2022-12-07T02:42:20;63.42;;;28.80;;
60257;SDS011;46115;44.484;11.314;2022-12-07T02:46:32;71.90;;;30.60;;
60257;SDS011;46115;44.484;11.314;2022-12-07T02:50:47;63.15;;;29.35;;
60257;SDS011;46115;44.484;11.314;2022-12-07T02:55:08;66.63;;;29.30;;
60257;SDS011;46115;44.484;11.314;2022-12-07T02:59:13;62.75;;;29.85;;
60257;SDS011;46115;44.484;11.314;2022-12-07T03:03:46;61.97;;;30.63;;
60257;SDS011;46115;44.484;11.314;2022-12-07T03:08:05;61.88;;;30.05;;
60257;SDS011;46115;44.484;11.314;2022-12-07T03:12:31;65.38;;;29.83;;
60257;SDS011;46115;44.484;11.314;2022-12-07T03:16:39;66.65;;;29.23;;
60257;SDS011;46115;44.484;11.314;2022-12-07T03:20:49;65.97;;;29.30;;
60257;SDS011;46115;44.484;11.314;2022-12-07T03:25:02;64.90;;;29.48;;
60257;SDS011;46115;44.484;11.314;2022-12-07T03:29:10;68.63;;;29.50;;
60257;SDS011;46115;44.484;11.314;2022-12-07T03:33:23;63.60;;;29.50;;
60257;SDS011;46115;44.484;11.314;2022-12-07T03:37:41;74.40;;;31.40;;
60257;SDS011;46115;44.484;11.314;2022-12-07T03:41:47;64.22;;;29.40;;
60257;SDS011;46115;44.484;11.314;2022-12-07T03:45:56;66.95;;;29.92;;
60257;SDS011;46115;44.484;11.314;2022-12-07T03:50:06;71.90;;;31.60;;
60257;SDS011;46115;44.484;11.314;2022-12-07T03:54:26;79.03;;;32.33;;
60257;SDS011;46115;44.484;11.314;2022-12-07T03:58:51;69.15;;;30.52;;
60257;SDS011;46115;44.484;11.314;2022-12-07T04:02:54;71.38;;;31.70;;
60257;SDS011;46115;44.484;11.314;2022-12-07T04:06:57;66.63;;;31.40;;
60257;SDS011;46115;44.484;11.314;2022-12-07T04:15:03;70.55;;;32.72;;
60257;SDS011;46115;44.484;11.314;2022-12-07T04:19:06;78.45;;;33.00;;
60257;SDS011;46115;44.484;11.314;2022-12-07T04:23:09;75.28;;;32.75;;
60257;SDS011;46115;44.484;11.314;2022-12-07T04:27:13;70.35;;;31.88;;
60257;SDS011;46115;44.484;11.314;2022-12-07T04:31:15;90.32;;;35.78;;
60257;SDS011;46115;44.484;11.314;2022-12-07T04:39:21;117.50;;;37.88;;
60257;SDS011;46115;44.484;11.314;2022-12-07T04:43:26;93.10;;;35.72;;
60257;SDS011;46115;44.484;11.314;2022-12-07T04:47:28;79.18;;;33.85;;
60257;SDS011;46115;44.484;11.314;2022-12-07T04:51:31;81.53;;;34.72;;
60257;SDS011;46115;44.484;11.314;2022-12-07T04:55:34;80.90;;;33.78;;
60257;SDS011;46115;44.484;11.314;2022-12-07T04:59:38;84.78;;;34.70;;
60257;SDS011;46115;44.484;11.314;2022-12-07T05:03:40;93.90;;;37.80;;
60257;SDS011;46115;44.484;11.314;2022-12-07T05:07:42;90.93;;;36.33;;
60257;SDS011;46115;44.484;11.314;2022-12-07T05:15:50;86.43;;;34.70;;
60257;SDS011;46115;44.484;11.314;2022-12-07T05:19:52;94.65;;;37.13;;
60257;SDS011;46115;44.484;11.314;2022-12-07T05:23:55;90.55;;;36.88;;
60257;SDS011;46115;44.484;11.314;2022-12-07T05:27:57;82.43;;;33.55;;
60257;SDS011;46115;44.484;11.314;2022-12-07T05:32:01;85.03;;;35.97;;
60257;SDS011;46115;44.484;11.314;2022-12-07T05:36:04;90.72;;;36.22;;
60257;SDS011;46115;44.484;11.314;2022-12-07T05:40:08;94.40;;;36.08;;
60257;SDS011;46115;44.484;11.314;2022-12-07T05:44:12;84.25;;;34.70;;
60257;SDS011;46115;44.484;11.314;2022-12-07T05:48:16;96.75;;;36.92;;
60257;SDS011;46115;44.484;11.314;2022-12-07T05:52:19;88.10;;;35.00;;
60257;SDS011;46115;44.484;11.314;2022-12-07T05:56:23;90.35;;;34.80;;
60257;SDS011;46115;44.484;11.314;2022-12-07T06:00:25;92.80;;;36.13;;
60257;SDS011;46115;44.484;11.314;2022-12-07T06:04:30;99.45;;;36.90;;
60257;SDS011;46115;44.484;11.314;2022-12-07T06:08:34;92.50;;;35.45;;
60257;SDS011;46115;44.484;11.314;2022-12-07T06:12:37;111.95;;;38.22;;
60257;SDS011;46115;44.484;11.314;2022-12-07T06:16:43;97.68;;;38.03;;
60257;SDS011;46115;44.484;11.314;2022-12-07T06:20:47;89.50;;;36.20;;
60257;SDS011;46115;44.484;11.314;2022-12-07T06:24:49;96.20;;;38.45;;
60257;SDS011;46115;44.484;11.314;2022-12-07T06:28:52;93.38;;;38.03;;
60257;SDS011;46115;44.484;11.314;2022-12-07T06:32:54;90.10;;;35.65;;
60257;SDS011;46115;44.484;11.314;2022-12-07T06:36:58;85.75;;;34.95;;
60257;SDS011;46115;44.484;11.314;2022-12-07T06:41:01;82.22;;;34.50;;
60257;SDS011;46115;44.484;11.314;2022-12-07T06:45:04;69.13;;;33.00;;
60257;SDS011;46115;44.484;11.314;2022-12-07T06:49:06;68.95;;;32.35;;
60257;SDS011;46115;44.484;11.314;2022-12-07T06:53:10;66.75;;;30.60;;
60257;SDS011;46115;44.484;11.314;2022-12-07T06:57:13;67.07;;;30.42;;
60257;SDS011;46115;44.484;11.314;2022-12-07T07:05:19;58.75;;;28.08;;
60257;SDS011;46115;44.484;11.314;2022-12-07T07:09:24;53.58;;;27.35;;
60257;SDS011;46115;44.484;11.314;2022-12-07T07:13:27;51.38;;;28.30;;
60257;SDS011;46115;44.484;11.314;2022-12-07T07:17:29;54.75;;;27.55;;
60257;SDS011;46115;44.484;11.314;2022-12-07T07:21:32;51.97;;;28.60;;
60257;SDS011;46115;44.484;11.314;2022-12-07T07:29:38;51.78;;;29.00;;
60257;SDS011;46115;44.484;11.314;2022-12-07T07:33:40;50.78;;;27.33;;
60257;SDS011;46115;44.484;11.314;2022-12-07T07:41:46;55.30;;;28.00;;
60257;SDS011;46115;44.484;11.314;2022-12-07T07:45:58;47.03;;;28.42;;
60257;SDS011;46115;44.484;11.314;2022-12-07T07:54:03;40.72;;;25.77;;
60257;SDS011;46115;44.484;11.314;2022-12-07T07:58:07;43.60;;;26.33;;
60257;SDS011;46115;44.484;11.314;2022-12-07T08:02:10;47.40;;;25.98;;
60257;SDS011;46115;44.484;11.314;2022-12-07T08:06:16;46.70;;;26.75;;
60257;SDS011;46115;44.484;11.314;2022-12-07T08:10:19;55.40;;;28.88;;
60257;SDS011;46115;44.484;11.314;2022-12-07T08:14:23;56.05;;;29.10;;
60257;SDS011;46115;44.484;11.314;2022-12-07T08:18:26;57.83;;;30.08;;
60257;SDS011;46115;44.484;11.314;2022-12-07T08:22:29;60.65;;;31.05;;
60257;SDS011;46115;44.484;11.314;2022-12-07T08:26:31;58.00;;;30.15;;
60257;SDS011;46115;44.484;11.314;2022-12-07T08:30:36;56.65;;;30.73;;
60257;SDS011;46115;44.484;11.314;2022-12-07T08:34:38;53.83;;;30.05;;
60257;SDS011;46115;44.484;11.314;2022-12-07T08:38:41;47.88;;;29.13;;
60257;SDS011;46115;44.484;11.314;2022-12-07T08:42:47;50.90;;;28.88;;
60257;SDS011;46115;44.484;11.314;2022-12-07T08:46:52;56.20;;;29.90;;
60257;SDS011;46115;44.484;11.314;2022-12-07T08:50:58;54.63;;;29.73;;
60257;SDS011;46115;44.484;11.314;2022-12-07T08:55:03;50.15;;;29.17;;
60257;SDS011;46115;44.484;11.314;2022-12-07T08:59:07;52.53;;;30.33;;
60257;SDS011;46115;44.484;11.314;2022-12-07T09:03:12;61.22;;;31.58;;
60257;SDS011;46115;44.484;11.314;2022-12-07T09:07:14;60.20;;;31.35;;
60257;SDS011;46115;44.484;11.314;2022-12-07T09:11:21;64.40;;;32.45;;
60257;SDS011;46115;44.484;11.314;2022-12-07T09:15:24;69.20;;;35.13;;
60257;SDS011;46115;44.484;11.314;2022-12-07T09:19:28;61.85;;;34.78;;
60257;SDS011;46115;44.484;11.314;2022-12-07T09:23:30;65.78;;;34.97;;
60257;SDS011;46115;44.484;11.314;2022-12-07T09:27:33;75.15;;;38.08;;
60257;SDS011;46115;44.484;11.314;2022-12-07T09:31:36;60.03;;;34.17;;
60257;SDS011;46115;44.484;11.314;2022-12-07T09:35:45;60.97;;;35.78;;
60257;SDS011;46115;44.484;11.314;2022-12-07T09:39:47;60.50;;;36.25;;
60257;SDS011;46115;44.484;11.314;2022-12-07T09:43:50;57.88;;;35.08;;
60257;SDS011;46115;44.484;11.314;2022-12-07T09:47:53;62.97;;;36.53;;
60257;SDS011;46115;44.484;11.314;2022-12-07T09:52:01;59.63;;;37.28;;
60257;SDS011;46115;44.484;11.314;2022-12-07T09:56:18;57.17;;;35.78;;
60257;SDS011;46115;44.484;11.314;2022-12-07T10:00:22;53.75;;;34.80;;
60257;SDS011;46115;44.484;11.314;2022-12-07T10:04:26;61.60;;;36.58;;
60257;SDS011;46115;44.484;11.314;2022-12-07T10:08:31;54.75;;;36.67;;
60257;SDS011;46115;44.484;11.314;2022-12-07T10:12:42;56.25;;;35.75;;
60257;SDS011;46115;44.484;11.314;2022-12-07T10:16:56;56.53;;;35.60;;
60257;SDS011;46115;44.484;11.314;2022-12-07T10:21:10;53.38;;;35.28;;
60257;SDS011;46115;44.484;11.314;2022-12-07T10:25:18;53.60;;;35.75;;
60257;SDS011;46115;44.484;11.314;2022-12-07T10:29:23;53.75;;;35.97;;
60257;SDS011;46115;44.484;11.314;2022-12-07T10:33:31;57.67;;;36.85;;
60257;SDS011;46115;44.484;11.314;2022-12-07T10:37:37;57.60;;;37.33;;
60257;SDS011;46115;44.484;11.314;2022-12-07T10:46:17;58.63;;;36.83;;
60257;SDS011;46115;44.484;11.314;2022-12-07T10:50:43;58.28;;;37.35;;
60257;SDS011;46115;44.484;11.314;2022-12-07T10:55:02;52.97;;;35.47;;
60257;SDS011;46115;44.484;11.314;2022-12-07T10:59:24;51.33;;;35.45;;
60257;SDS011;46115;44.484;11.314;2022-12-07T11:03:53;53.45;;;36.58;;
60257;SDS011;46115;44.484;11.314;2022-12-07T11:08:11;52.10;;;37.33;;
60257;SDS011;46115;44.484;11.314;2022-12-07T11:12:26;56.05;;;36.85;;
60257;SDS011;46115;44.484;11.314;2022-12-07T11:16:43;51.38;;;35.72;;
60257;SDS011;46115;44.484;11.314;2022-12-07T11:20:56;51.47;;;36.15;;
60257;SDS011;46115;44.484;11.314;2022-12-07T11:25:15;57.40;;;37.10;;
60257;SDS011;46115;44.484;11.314;2022-12-07T11:29:29;51.00;;;35.63;;
60257;SDS011;46115;44.484;11.314;2022-12-07T11:33:52;50.65;;;34.97;;
60257;SDS011;46115;44.484;11.314;2022-12-07T11:38:01;53.53;;;36.60;;
60257;SDS011;46115;44.484;11.314;2022-12-07T11:42:13;50.13;;;35.15;;
60257;SDS011;46115;44.484;11.314;2022-12-07T11:46:19;49.75;;;35.55;;
60257;SDS011;46115;44.484;11.314;2022-12-07T11:50:30;50.10;;;35.60;;
60257;SDS011;46115;44.484;11.314;2022-12-07T11:54:39;47.97;;;34.70;;
60257;SDS011;46115;44.484;11.314;2022-12-07T11:58:48;49.67;;;34.65;;
60257;SDS011;46115;44.484;11.314;2022-12-07T12:02:54;47.90;;;35.47;;
60257;SDS011;46115;44.484;11.314;2022-12-07T12:07:05;53.22;;;36.20;;
60257;SDS011;46115;44.484;11.314;2022-12-07T12:11:10;53.35;;;36.22;;
60257;SDS011;46115;44.484;11.314;2022-12-07T12:15:30;46.00;;;33.92;;
60257;SDS011;46115;44.484;11.314;2022-12-07T12:19:56;45.28;;;34.03;;
60257;SDS011;46115;44.484;11.314;2022-12-07T12:24:04;45.08;;;33.47;;
60257;SDS011;46115;44.484;11.314;2022-12-07T12:28:19;45.10;;;32.78;;
60257;SDS011;46115;44.484;11.314;2022-12-07T12:32:30;44.47;;;32.97;;
60257;SDS011;46115;44.484;11.314;2022-12-07T12:36:45;47.05;;;33.65;;
60257;SDS011;46115;44.484;11.314;2022-12-07T12:40:50;43.90;;;30.98;;
60257;SDS011;46115;44.484;11.314;2022-12-07T12:45:03;43.75;;;31.70;;
60257;SDS011;46115;44.484;11.314;2022-12-07T12:49:31;44.35;;;31.35;;
60257;SDS011;46115;44.484;11.314;2022-12-07T12:53:39;42.75;;;30.63;;
60257;SDS011;46115;44.484;11.314;2022-12-07T12:57:44;43.33;;;30.45;;
60257;SDS011;46115;44.484;11.314;2022-12-07T13:01:46;43.03;;;30.83;;
60257;SDS011;46115;44.484;11.314;2022-12-07T13:05:58;45.40;;;30.60;;
60257;SDS011;46115;44.484;11.314;2022-12-07T13:10:20;45.42;;;29.80;;
60257;SDS011;46115;44.484;11.314;2022-12-07T13:14:41;45.05;;;32.28;;
60257;SDS011;46115;44.484;11.314;2022-12-07T13:18:56;44.05;;;32.22;;
60257;SDS011;46115;44.484;11.314;2022-12-07T13:22:59;42.20;;;31.65;;
60257;SDS011;46115;44.484;11.314;2022-12-07T13:27:03;42.00;;;30.60;;
60257;SDS011;46115;44.484;11.314;2022-12-07T13:31:22;45.30;;;33.15;;
60257;SDS011;46115;44.484;11.314;2022-12-07T13:35:34;44.90;;;31.90;;
60257;SDS011;46115;44.484;11.314;2022-12-07T13:39:44;46.80;;;33.08;;
60257;SDS011;46115;44.484;11.314;2022-12-07T13:43:49;44.65;;;31.80;;
60257;SDS011;46115;44.484;11.314;2022-12-07T13:47:55;44.58;;;32.72;;
60257;SDS011;46115;44.484;11.314;2022-12-07T13:52:12;44.47;;;32.47;;
60257;SDS011;46115;44.484;11.314;2022-12-07T13:56:18;43.67;;;32.50;;
60257;SDS011;46115;44.484;11.314;2022-12-07T14:00:23;47.90;;;32.97;;
60257;SDS011;46115;44.484;11.314;2022-12-07T14:04:31;45.22;;;31.33;;
60257;SDS011;46115;44.484;11.314;2022-12-07T14:08:36;44.00;;;31.73;;
60257;SDS011;46115;44.484;11.314;2022-12-07T14:12:38;43.08;;;31.60;;
60257;SDS011;46115;44.484;11.314;2022-12-07T14:16:54;44.47;;;32.17;;
60257;SDS011;46115;44.484;11.314;2022-12-07T14:21:06;42.17;;;32.53;;
60257;SDS011;46115;44.484;11.314;2022-12-07T14:25:18;45.83;;;33.78;;
60257;SDS011;46115;44.484;11.314;2022-12-07T14:29:29;47.17;;;33.42;;
60257;SDS011;46115;44.484;11.314;2022-12-07T14:33:33;47.90;;;33.08;;
60257;SDS011;46115;44.484;11.314;2022-12-07T14:41:40;48.75;;;33.25;;
60257;SDS011;46115;44.484;11.314;2022-12-07T14:46:02;47.22;;;32.80;;
60257;SDS011;46115;44.484;11.314;2022-12-07T14:50:06;42.42;;;31.77;;
60257;SDS011;46115;44.484;11.314;2022-12-07T14:54:13;48.25;;;33.15;;
60257;SDS011;46115;44.484;11.314;2022-12-07T14:58:18;45.97;;;33.03;;
60257;SDS011;46115;44.484;11.314;2022-12-07T15:02:21;39.83;;;28.60;;
60257;SDS011;46115;44.484;11.314;2022-12-07T15:06:23;41.17;;;30.20;;
60257;SDS011;46115;44.484;11.314;2022-12-07T15:10:29;41.35;;;30.80;;
60257;SDS011;46115;44.484;11.314;2022-12-07T15:14:33;41.65;;;31.35;;
60257;SDS011;46115;44.484;11.314;2022-12-07T15:18:35;45.25;;;32.30;;
60257;SDS011;46115;44.484;11.314;2022-12-07T15:26:42;45.20;;;29.58;;
60257;SDS011;46115;44.484;11.314;2022-12-07T15:30:44;40.63;;;29.10;;
60257;SDS011;46115;44.484;11.314;2022-12-07T15:34:48;43.45;;;29.60;;
60257;SDS011;46115;44.484;11.314;2022-12-07T15:38:50;41.83;;;29.27;;
60257;SDS011;46115;44.484;11.314;2022-12-07T15:42:54;45.17;;;30.13;;
60257;SDS011;46115;44.484;11.314;2022-12-07T15:46:57;41.67;;;29.13;;
60257;SDS011;46115;44.484;11.314;2022-12-07T15:51:03;48.80;;;31.20;;
60257;SDS011;46115;44.484;11.314;2022-12-07T23:06:09;127.45;;;42.20;;
60257;SDS011;46115;44.484;11.314;2022-12-07T23:10:14;127.65;;;43.10;;
60257;SDS011;46115;44.484;11.314;2022-12-07T23:18:20;122.32;;;39.42;;
60257;SDS011;46115;44.484;11.314;2022-12-07T23:22:24;123.22;;;42.58;;
60257;SDS011;46115;44.484;11.314;2022-12-07T23:26:27;122.25;;;44.90;;
60257;SDS011;46115;44.484;11.314;2022-12-07T23:30:30;124.13;;;43.53;;
60257;SDS011;46115;44.484;11.314;2022-12-07T23:38:36;124.18;;;42.67;;
60257;SDS011;46115;44.484;11.314;2022-12-07T23:42:39;143.57;;;45.90;;
60257;SDS011;46115;44.484;11.314;2022-12-07T23:50:43;129.70;;;42.80;;
60257;SDS011;46115;44.484;11.314;2022-12-07T23:58:49;137.77;;;44.08;;
